sensor_id;sensor_type;location;lat;lon;timestamp;P1;durP1;ratioP1;P2;durP2;ratioP2
44704;SDS011;30431;48.520;9.046;2022-11-27T00:01:30;68.22;;;16.30;;
44704;SDS011;30431;48.520;9.046;2022-11-27T00:03:59;65.55;;;15.98;;
44704;SDS011;30431;48.520;9.046;2022-11-27T00:06:27;75.68;;;16.42;;
44704;SDS011;30431;48.520;9.046;2022-11-27T00:08:58;94.40;;;16.88;;
44704;SDS011;30431;48.520;9.046;2022-11-27T00:11:30;56.03;;;15.32;;
44704;SDS011;30431;48.520;9.046;2022-11-27T00:14:00;49.53;;;14.00;;
44704;SDS011;30431;48.520;9.046;2022-11-27T00:16:27;84.88;;;15.15;;
44704;SDS011;30431;48.520;9.046;2022-11-27T00:18:57;61.58;;;15.30;;
44704;SDS011;30431;48.520;9.046;2022-11-27T00:21:25;83.72;;;15.63;;
44704;SDS011;30431;48.520;9.046;2022-11-27T00:23:59;68.57;;;15.65;;
44704;SDS011;30431;48.520;9.046;2022-11-27T00:26:30;50.10;;;14.82;;
44704;SDS011;30431;48.520;9.046;2022-11-27T00:29:03;75.63;;;15.45;;
44704;SDS011;30431;48.520;9.046;2022-11-27T00:31:31;82.72;;;15.63;;
44704;SDS011;30431;48.520;9.046;2022-11-27T00:33:59;82.03;;;16.00;;
44704;SDS011;30431;48.520;9.046;2022-11-27T00:36:30;108.30;;;15.48;;
44704;SDS011;30431;48.520;9.046;2022-11-27T00:38:58;111.05;;;16.30;;
44704;SDS011;30431;48.520;9.046;2022-11-27T00:41:26;50.75;;;13.88;;
44704;SDS011;30431;48.520;9.046;2022-11-27T00:43:57;34.42;;;14.65;;
44704;SDS011;30431;48.520;9.046;2022-11-27T00:46:27;40.38;;;13.93;;
44704;SDS011;30431;48.520;9.046;2022-11-27T00:48:57;45.53;;;14.07;;
44704;SDS011;30431;48.520;9.046;2022-11-27T00:51:26;97.82;;;14.90;;
44704;SDS011;30431;48.520;9.046;2022-11-27T00:53:53;85.28;;;14.98;;
44704;SDS011;30431;48.520;9.046;2022-11-27T00:56:27;53.83;;;13.48;;
44704;SDS011;30431;48.520;9.046;2022-11-27T00:58:58;99.80;;;15.35;;
44704;SDS011;30431;48.520;9.046;2022-11-27T01:01:30;98.50;;;13.50;;
44704;SDS011;30431;48.520;9.046;2022-11-27T01:04:00;112.82;;;14.00;;
44704;SDS011;30431;48.520;9.046;2022-11-27T01:06:28;45.50;;;13.07;;
44704;SDS011;30431;48.520;9.046;2022-11-27T01:09:01;56.70;;;13.60;;
44704;SDS011;30431;48.520;9.046;2022-11-27T01:11:32;71.63;;;14.25;;
44704;SDS011;30431;48.520;9.046;2022-11-27T01:14:04;89.50;;;13.98;;
44704;SDS011;30431;48.520;9.046;2022-11-27T01:16:44;78.55;;;14.30;;
44704;SDS011;30431;48.520;9.046;2022-11-27T01:19:12;55.95;;;13.05;;
44704;SDS011;30431;48.520;9.046;2022-11-27T01:21:42;46.95;;;11.57;;
44704;SDS011;30431;48.520;9.046;2022-11-27T01:24:09;93.32;;;12.40;;
44704;SDS011;30431;48.520;9.046;2022-11-27T01:26:38;60.25;;;11.68;;
44704;SDS011;30431;48.520;9.046;2022-11-27T01:29:05;115.72;;;12.93;;
44704;SDS011;30431;48.520;9.046;2022-11-27T01:31:33;51.53;;;12.88;;
44704;SDS011;30431;48.520;9.046;2022-11-27T01:34:05;104.30;;;14.35;;
44704;SDS011;30431;48.520;9.046;2022-11-27T01:36:37;38.88;;;12.50;;
44704;SDS011;30431;48.520;9.046;2022-11-27T01:39:04;53.95;;;12.23;;
44704;SDS011;30431;48.520;9.046;2022-11-27T01:41:35;30.15;;;11.63;;
44704;SDS011;30431;48.520;9.046;2022-11-27T01:44:51;18.40;;;11.27;;
44704;SDS011;30431;48.520;9.046;2022-11-27T01:46:59;37.58;;;11.05;;
44704;SDS011;30431;48.520;9.046;2022-11-27T01:49:31;38.50;;;12.25;;
44704;SDS011;30431;48.520;9.046;2022-11-27T01:51:59;124.63;;;12.27;;
44704;SDS011;30431;48.520;9.046;2022-11-27T01:54:33;35.05;;;10.30;;
44704;SDS011;30431;48.520;9.046;2022-11-27T01:57:09;27.77;;;9.80;;
44704;SDS011;30431;48.520;9.046;2022-11-27T01:59:44;58.35;;;10.95;;
44704;SDS011;30431;48.520;9.046;2022-11-27T02:02:15;65.55;;;10.70;;
44704;SDS011;30431;48.520;9.046;2022-11-27T02:07:09;21.05;;;10.50;;
44704;SDS011;30431;48.520;9.046;2022-11-27T02:09:39;75.30;;;10.90;;
44704;SDS011;30431;48.520;9.046;2022-11-27T02:17:23;22.80;;;10.32;;
44704;SDS011;30431;48.520;9.046;2022-11-27T02:20:05;38.38;;;10.52;;
44704;SDS011;30431;48.520;9.046;2022-11-27T02:30:52;65.63;;;11.50;;
44704;SDS011;30431;48.520;9.046;2022-11-27T02:33:29;39.92;;;12.23;;
44704;SDS011;30431;48.520;9.046;2022-11-27T02:36:00;18.63;;;10.98;;
44704;SDS011;30431;48.520;9.046;2022-11-27T02:38:39;51.08;;;10.50;;
44704;SDS011;30431;48.520;9.046;2022-11-27T02:43:51;41.38;;;11.68;;
44704;SDS011;30431;48.520;9.046;2022-11-27T02:46:20;24.73;;;11.82;;
44704;SDS011;30431;48.520;9.046;2022-11-27T02:48:55;38.60;;;10.98;;
44704;SDS011;30431;48.520;9.046;2022-11-27T02:51:34;67.75;;;11.27;;
44704;SDS011;30431;48.520;9.046;2022-11-27T02:54:08;32.45;;;10.05;;
44704;SDS011;30431;48.520;9.046;2022-11-27T02:56:39;34.60;;;11.23;;
44704;SDS011;30431;48.520;9.046;2022-11-27T02:59:08;28.70;;;10.18;;
44704;SDS011;30431;48.520;9.046;2022-11-27T03:01:39;16.80;;;10.00;;
44704;SDS011;30431;48.520;9.046;2022-11-27T03:04:14;64.82;;;10.85;;
44704;SDS011;30431;48.520;9.046;2022-11-27T03:06:51;19.85;;;10.48;;
44704;SDS011;30431;48.520;9.046;2022-11-27T03:09:24;45.45;;;10.10;;
44704;SDS011;30431;48.520;9.046;2022-11-27T03:12:06;43.83;;;9.70;;
44704;SDS011;30431;48.520;9.046;2022-11-27T03:14:37;45.28;;;9.43;;
44704;SDS011;30431;48.520;9.046;2022-11-27T03:19:59;33.70;;;8.68;;
44704;SDS011;30431;48.520;9.046;2022-11-27T03:22:57;31.98;;;9.20;;
44704;SDS011;30431;48.520;9.046;2022-11-27T03:25:24;23.60;;;9.05;;
44704;SDS011;30431;48.520;9.046;2022-11-27T03:27:55;28.83;;;9.65;;
44704;SDS011;30431;48.520;9.046;2022-11-27T03:30:26;19.80;;;8.68;;
44704;SDS011;30431;48.520;9.046;2022-11-27T03:32:53;16.33;;;8.07;;
44704;SDS011;30431;48.520;9.046;2022-11-27T03:35:24;39.22;;;8.07;;
44704;SDS011;30431;48.520;9.046;2022-11-27T03:37:54;51.22;;;7.65;;
44704;SDS011;30431;48.520;9.046;2022-11-27T03:40:27;20.80;;;7.57;;
44704;SDS011;30431;48.520;9.046;2022-11-27T03:43:10;85.10;;;9.35;;
44704;SDS011;30431;48.520;9.046;2022-11-27T03:51:20;112.55;;;9.02;;
44704;SDS011;30431;48.520;9.046;2022-11-27T03:54:15;41.35;;;7.85;;
44704;SDS011;30431;48.520;9.046;2022-11-27T03:56:47;33.35;;;7.93;;
44704;SDS011;30431;48.520;9.046;2022-11-27T03:59:17;70.55;;;8.88;;
44704;SDS011;30431;48.520;9.046;2022-11-27T04:01:51;70.93;;;8.52;;
44704;SDS011;30431;48.520;9.046;2022-11-27T04:04:18;73.93;;;8.48;;
44704;SDS011;30431;48.520;9.046;2022-11-27T04:06:47;22.83;;;7.93;;
44704;SDS011;30431;48.520;9.046;2022-11-27T04:09:17;62.42;;;8.70;;
44704;SDS011;30431;48.520;9.046;2022-11-27T04:11:44;47.30;;;7.90;;
44704;SDS011;30431;48.520;9.046;2022-11-27T04:14:13;82.78;;;8.30;;
44704;SDS011;30431;48.520;9.046;2022-11-27T04:16:40;37.42;;;7.85;;
44704;SDS011;30431;48.520;9.046;2022-11-27T04:19:09;66.75;;;7.20;;
44704;SDS011;30431;48.520;9.046;2022-11-27T04:21:36;127.28;;;7.88;;
44704;SDS011;30431;48.520;9.046;2022-11-27T04:24:03;26.48;;;6.95;;
44704;SDS011;30431;48.520;9.046;2022-11-27T04:26:30;139.80;;;9.60;;
44704;SDS011;30431;48.520;9.046;2022-11-27T04:28:57;141.48;;;8.77;;
44704;SDS011;30431;48.520;9.046;2022-11-27T04:31:24;55.33;;;8.02;;
44704;SDS011;30431;48.520;9.046;2022-11-27T04:33:54;21.60;;;7.82;;
44704;SDS011;30431;48.520;9.046;2022-11-27T04:36:23;46.30;;;7.93;;
44704;SDS011;30431;48.520;9.046;2022-11-27T04:38:50;34.97;;;8.38;;
44704;SDS011;30431;48.520;9.046;2022-11-27T04:41:17;61.25;;;7.40;;
44704;SDS011;30431;48.520;9.046;2022-11-27T04:43:44;95.72;;;7.63;;
44704;SDS011;30431;48.520;9.046;2022-11-27T04:46:11;102.13;;;8.13;;
44704;SDS011;30431;48.520;9.046;2022-11-27T04:48:40;28.50;;;8.57;;
44704;SDS011;30431;48.520;9.046;2022-11-27T04:51:07;44.17;;;7.03;;
44704;SDS011;30431;48.520;9.046;2022-11-27T04:53:34;76.05;;;7.85;;
44704;SDS011;30431;48.520;9.046;2022-11-27T04:56:01;107.60;;;8.07;;
44704;SDS011;30431;48.520;9.046;2022-11-27T04:58:28;110.72;;;7.78;;
44704;SDS011;30431;48.520;9.046;2022-11-27T05:01:00;51.53;;;7.35;;
44704;SDS011;30431;48.520;9.046;2022-11-27T05:03:27;29.85;;;7.32;;
44704;SDS011;30431;48.520;9.046;2022-11-27T05:05:57;72.15;;;7.82;;
44704;SDS011;30431;48.520;9.046;2022-11-27T05:11:09;62.22;;;6.88;;
44704;SDS011;30431;48.520;9.046;2022-11-27T05:13:38;114.30;;;8.05;;
44704;SDS011;30431;48.520;9.046;2022-11-27T05:16:05;39.25;;;7.55;;
44704;SDS011;30431;48.520;9.046;2022-11-27T05:18:32;18.45;;;7.43;;
44704;SDS011;30431;48.520;9.046;2022-11-27T05:23:29;58.38;;;6.85;;
44704;SDS011;30431;48.520;9.046;2022-11-27T05:25:57;55.75;;;7.05;;
44704;SDS011;30431;48.520;9.046;2022-11-27T05:30:54;40.83;;;6.15;;
44704;SDS011;30431;48.520;9.046;2022-11-27T05:33:22;17.08;;;5.57;;
44704;SDS011;30431;48.520;9.046;2022-11-27T05:35:51;10.48;;;5.72;;
44704;SDS011;30431;48.520;9.046;2022-11-27T05:38:18;25.25;;;6.20;;
44704;SDS011;30431;48.520;9.046;2022-11-27T05:40:45;67.93;;;6.53;;
44704;SDS011;30431;48.520;9.046;2022-11-27T05:43:16;11.93;;;5.63;;
44704;SDS011;30431;48.520;9.046;2022-11-27T05:45:46;40.45;;;6.28;;
44704;SDS011;30431;48.520;9.046;2022-11-27T05:48:17;54.40;;;6.03;;
44704;SDS011;30431;48.520;9.046;2022-11-27T05:50:45;55.97;;;6.20;;
44704;SDS011;30431;48.520;9.046;2022-11-27T05:53:12;59.78;;;6.50;;
44704;SDS011;30431;48.520;9.046;2022-11-27T05:55:39;39.38;;;5.93;;
44704;SDS011;30431;48.520;9.046;2022-11-27T05:58:08;23.30;;;5.43;;
44704;SDS011;30431;48.520;9.046;2022-11-27T06:00:36;28.80;;;6.00;;
44704;SDS011;30431;48.520;9.046;2022-11-27T06:03:05;28.15;;;6.35;;
44704;SDS011;30431;48.520;9.046;2022-11-27T06:05:32;17.00;;;5.90;;
44704;SDS011;30431;48.520;9.046;2022-11-27T06:08:05;43.65;;;5.72;;
44704;SDS011;30431;48.520;9.046;2022-11-27T06:10:36;18.85;;;4.95;;
44704;SDS011;30431;48.520;9.046;2022-11-27T06:13:06;18.92;;;5.60;;
44704;SDS011;30431;48.520;9.046;2022-11-27T06:15:34;20.10;;;6.32;;
44704;SDS011;30431;48.520;9.046;2022-11-27T06:18:05;23.98;;;5.78;;
44704;SDS011;30431;48.520;9.046;2022-11-27T06:20:38;25.58;;;6.18;;
44704;SDS011;30431;48.520;9.046;2022-11-27T06:23:11;7.53;;;5.70;;
44704;SDS011;30431;48.520;9.046;2022-11-27T06:25:40;14.02;;;5.68;;
44704;SDS011;30431;48.520;9.046;2022-11-27T06:28:11;35.53;;;5.38;;
44704;SDS011;30431;48.520;9.046;2022-11-27T06:30:41;20.92;;;5.40;;
44704;SDS011;30431;48.520;9.046;2022-11-27T06:33:10;12.63;;;5.68;;
44704;SDS011;30431;48.520;9.046;2022-11-27T06:35:37;15.77;;;5.55;;
44704;SDS011;30431;48.520;9.046;2022-11-27T06:38:04;9.43;;;5.68;;
44704;SDS011;30431;48.520;9.046;2022-11-27T06:40:31;15.57;;;6.97;;
44704;SDS011;30431;48.520;9.046;2022-11-27T06:42:58;21.95;;;7.70;;
44704;SDS011;30431;48.520;9.046;2022-11-27T06:45:24;16.55;;;6.00;;
44704;SDS011;30431;48.520;9.046;2022-11-27T06:47:51;26.98;;;6.90;;
44704;SDS011;30431;48.520;9.046;2022-11-27T06:50:21;26.45;;;6.70;;
44704;SDS011;30431;48.520;9.046;2022-11-27T06:52:54;49.00;;;6.53;;
44704;SDS011;30431;48.520;9.046;2022-11-27T06:55:23;16.77;;;6.13;;
44704;SDS011;30431;48.520;9.046;2022-11-27T06:57:52;24.73;;;6.05;;
44704;SDS011;30431;48.520;9.046;2022-11-27T07:00:19;34.60;;;5.47;;
44704;SDS011;30431;48.520;9.046;2022-11-27T07:02:46;91.65;;;6.53;;
44704;SDS011;30431;48.520;9.046;2022-11-27T07:05:18;56.00;;;5.80;;
44704;SDS011;30431;48.520;9.046;2022-11-27T07:07:47;55.47;;;6.45;;
44704;SDS011;30431;48.520;9.046;2022-11-27T07:10:17;20.05;;;6.03;;
44704;SDS011;30431;48.520;9.046;2022-11-27T07:12:46;12.27;;;5.63;;
44704;SDS011;30431;48.520;9.046;2022-11-27T07:15:15;31.85;;;6.18;;
44704;SDS011;30431;48.520;9.046;2022-11-27T07:17:42;7.47;;;5.40;;
44704;SDS011;30431;48.520;9.046;2022-11-27T07:20:09;11.00;;;5.60;;
44704;SDS011;30431;48.520;9.046;2022-11-27T07:22:41;13.57;;;5.55;;
44704;SDS011;30431;48.520;9.046;2022-11-27T07:25:10;28.83;;;6.03;;
44704;SDS011;30431;48.520;9.046;2022-11-27T07:27:37;6.40;;;5.00;;
44704;SDS011;30431;48.520;9.046;2022-11-27T07:30:07;9.13;;;5.30;;
44704;SDS011;30431;48.520;9.046;2022-11-27T07:32:39;9.30;;;5.10;;
44704;SDS011;30431;48.520;9.046;2022-11-27T07:35:06;10.77;;;5.55;;
44704;SDS011;30431;48.520;9.046;2022-11-27T07:37:34;9.70;;;5.60;;
44704;SDS011;30431;48.520;9.046;2022-11-27T07:40:01;11.95;;;5.65;;
44704;SDS011;30431;48.520;9.046;2022-11-27T07:42:29;7.80;;;5.10;;
44704;SDS011;30431;48.520;9.046;2022-11-27T07:45:03;6.68;;;4.22;;
44704;SDS011;30431;48.520;9.046;2022-11-27T07:47:34;7.15;;;4.30;;
44704;SDS011;30431;48.520;9.046;2022-11-27T07:50:04;5.13;;;4.07;;
44704;SDS011;30431;48.520;9.046;2022-11-27T07:52:34;7.25;;;4.78;;
44704;SDS011;30431;48.520;9.046;2022-11-27T07:55:07;6.10;;;4.60;;
44704;SDS011;30431;48.520;9.046;2022-11-27T07:57:35;6.90;;;4.50;;
44704;SDS011;30431;48.520;9.046;2022-11-27T08:00:05;6.53;;;4.80;;
44704;SDS011;30431;48.520;9.046;2022-11-27T08:02:40;6.38;;;4.43;;
44704;SDS011;30431;48.520;9.046;2022-11-27T08:05:09;7.32;;;4.78;;
44704;SDS011;30431;48.520;9.046;2022-11-27T08:07:38;6.78;;;5.10;;
44704;SDS011;30431;48.520;9.046;2022-11-27T08:10:06;7.50;;;5.25;;
44704;SDS011;30431;48.520;9.046;2022-11-27T08:12:33;7.90;;;5.32;;
44704;SDS011;30431;48.520;9.046;2022-11-27T08:15:00;6.82;;;5.00;;
44704;SDS011;30431;48.520;9.046;2022-11-27T08:17:30;5.63;;;4.15;;
44704;SDS011;30431;48.520;9.046;2022-11-27T08:19:57;5.32;;;4.00;;
44704;SDS011;30431;48.520;9.046;2022-11-27T08:22:26;5.60;;;4.20;;
44704;SDS011;30431;48.520;9.046;2022-11-27T08:24:53;6.47;;;4.30;;
44704;SDS011;30431;48.520;9.046;2022-11-27T08:27:20;5.07;;;3.78;;
44704;SDS011;30431;48.520;9.046;2022-11-27T08:29:47;5.00;;;3.75;;
44704;SDS011;30431;48.520;9.046;2022-11-27T08:32:16;5.32;;;3.95;;
44704;SDS011;30431;48.520;9.046;2022-11-27T08:34:43;4.97;;;3.50;;
44704;SDS011;30431;48.520;9.046;2022-11-27T08:37:18;5.45;;;3.95;;
44704;SDS011;30431;48.520;9.046;2022-11-27T08:39:47;7.25;;;4.95;;
44704;SDS011;30431;48.520;9.046;2022-11-27T08:42:15;6.00;;;4.50;;
44704;SDS011;30431;48.520;9.046;2022-11-27T08:44:42;6.53;;;4.60;;
44704;SDS011;30431;48.520;9.046;2022-11-27T08:47:12;7.28;;;5.47;;
44704;SDS011;30431;48.520;9.046;2022-11-27T08:49:43;8.45;;;5.72;;
44704;SDS011;30431;48.520;9.046;2022-11-27T08:52:14;6.07;;;4.50;;
44704;SDS011;30431;48.520;9.046;2022-11-27T08:54:41;10.23;;;5.80;;
44704;SDS011;30431;48.520;9.046;2022-11-27T08:57:08;7.57;;;5.88;;
44704;SDS011;30431;48.520;9.046;2022-11-27T08:59:37;9.43;;;6.03;;
44704;SDS011;30431;48.520;9.046;2022-11-27T09:02:04;9.40;;;5.95;;
44704;SDS011;30431;48.520;9.046;2022-11-27T09:04:31;11.45;;;7.13;;
44704;SDS011;30431;48.520;9.046;2022-11-27T09:06:58;11.27;;;7.20;;
44704;SDS011;30431;48.520;9.046;2022-11-27T09:09:26;10.32;;;6.93;;
44704;SDS011;30431;48.520;9.046;2022-11-27T09:11:53;8.48;;;6.03;;
44704;SDS011;30431;48.520;9.046;2022-11-27T09:14:20;8.25;;;5.63;;
44704;SDS011;30431;48.520;9.046;2022-11-27T09:16:47;9.45;;;7.00;;
44704;SDS011;30431;48.520;9.046;2022-11-27T09:19:14;10.98;;;7.25;;
44704;SDS011;30431;48.520;9.046;2022-11-27T09:21:42;8.15;;;6.22;;
44704;SDS011;30431;48.520;9.046;2022-11-27T09:24:09;10.02;;;5.93;;
44704;SDS011;30431;48.520;9.046;2022-11-27T09:26:36;8.02;;;6.07;;
44704;SDS011;30431;48.520;9.046;2022-11-27T09:29:04;7.55;;;5.50;;
44704;SDS011;30431;48.520;9.046;2022-11-27T09:31:33;8.77;;;5.60;;
44704;SDS011;30431;48.520;9.046;2022-11-27T09:34:07;8.43;;;6.10;;
44704;SDS011;30431;48.520;9.046;2022-11-27T09:36:34;8.63;;;6.45;;
44704;SDS011;30431;48.520;9.046;2022-11-27T09:39:03;7.43;;;5.78;;
44704;SDS011;30431;48.520;9.046;2022-11-27T09:44:23;7.70;;;5.72;;
44704;SDS011;30431;48.520;9.046;2022-11-27T09:47:03;9.52;;;6.38;;
44704;SDS011;30431;48.520;9.046;2022-11-27T09:49:49;9.15;;;6.57;;
44704;SDS011;30431;48.520;9.046;2022-11-27T09:52:42;8.90;;;6.70;;
44704;SDS011;30431;48.520;9.046;2022-11-27T09:57:57;9.88;;;7.20;;
44704;SDS011;30431;48.520;9.046;2022-11-27T10:00:32;7.93;;;6.82;;
44704;SDS011;30431;48.520;9.046;2022-11-27T10:03:01;11.00;;;6.72;;
44704;SDS011;30431;48.520;9.046;2022-11-27T10:05:33;8.90;;;6.05;;
44704;SDS011;30431;48.520;9.046;2022-11-27T10:13:54;7.95;;;5.47;;
44704;SDS011;30431;48.520;9.046;2022-11-27T10:30:43;7.82;;;5.50;;
44704;SDS011;30431;48.520;9.046;2022-11-27T10:33:17;7.75;;;5.38;;
44704;SDS011;30431;48.520;9.046;2022-11-27T10:35:49;9.63;;;5.50;;
44704;SDS011;30431;48.520;9.046;2022-11-27T10:38:18;9.38;;;5.68;;
44704;SDS011;30431;48.520;9.046;2022-11-27T10:46:17;10.45;;;6.00;;
44704;SDS011;30431;48.520;9.046;2022-11-27T10:48:50;8.10;;;5.32;;
44704;SDS011;30431;48.520;9.046;2022-11-27T10:51:30;8.93;;;5.82;;
44704;SDS011;30431;48.520;9.046;2022-11-27T10:54:05;8.10;;;5.32;;
44704;SDS011;30431;48.520;9.046;2022-11-27T10:59:30;21.05;;;12.02;;
44704;SDS011;30431;48.520;9.046;2022-11-27T11:02:01;13.57;;;8.00;;
44704;SDS011;30431;48.520;9.046;2022-11-27T11:04:32;7.65;;;5.22;;
44704;SDS011;30431;48.520;9.046;2022-11-27T11:07:14;8.45;;;6.05;;
44704;SDS011;30431;48.520;9.046;2022-11-27T11:09:52;7.80;;;5.30;;
44704;SDS011;30431;48.520;9.046;2022-11-27T11:12:20;9.30;;;6.00;;
44704;SDS011;30431;48.520;9.046;2022-11-27T11:14:49;10.05;;;6.05;;
44704;SDS011;30431;48.520;9.046;2022-11-27T11:17:17;9.15;;;6.43;;
44704;SDS011;30431;48.520;9.046;2022-11-27T11:19:49;9.32;;;6.50;;
44704;SDS011;30431;48.520;9.046;2022-11-27T11:22:16;6.50;;;5.40;;
44704;SDS011;30431;48.520;9.046;2022-11-27T11:24:47;10.00;;;5.57;;
44704;SDS011;30431;48.520;9.046;2022-11-27T11:29:49;7.88;;;5.20;;
44704;SDS011;30431;48.520;9.046;2022-11-27T11:32:28;6.50;;;5.10;;
44704;SDS011;30431;48.520;9.046;2022-11-27T11:37:38;8.45;;;5.13;;
44704;SDS011;30431;48.520;9.046;2022-11-27T11:40:16;10.27;;;5.55;;
44704;SDS011;30431;48.520;9.046;2022-11-27T11:42:56;8.90;;;5.28;;
44704;SDS011;30431;48.520;9.046;2022-11-27T11:45:28;7.50;;;5.40;;
44704;SDS011;30431;48.520;9.046;2022-11-27T11:50:46;8.25;;;5.85;;
44704;SDS011;30431;48.520;9.046;2022-11-27T11:53:31;8.98;;;5.38;;
44704;SDS011;30431;48.520;9.046;2022-11-27T12:04:50;9.52;;;6.03;;
44704;SDS011;30431;48.520;9.046;2022-11-27T12:07:35;8.80;;;6.38;;
44704;SDS011;30431;48.520;9.046;2022-11-27T12:10:14;9.82;;;6.45;;
44704;SDS011;30431;48.520;9.046;2022-11-27T12:26:43;9.45;;;6.05;;
44704;SDS011;30431;48.520;9.046;2022-11-27T12:32:04;8.02;;;5.93;;
44704;SDS011;30431;48.520;9.046;2022-11-27T12:37:17;7.00;;;4.82;;
44704;SDS011;30431;48.520;9.046;2022-11-27T12:46:29;7.68;;;4.30;;
44704;SDS011;30431;48.520;9.046;2022-11-27T12:51:44;6.43;;;4.40;;
44704;SDS011;30431;48.520;9.046;2022-11-27T12:54:21;5.97;;;4.38;;
44704;SDS011;30431;48.520;9.046;2022-11-27T12:57:01;6.47;;;4.60;;
44704;SDS011;30431;48.520;9.046;2022-11-27T12:59:44;7.78;;;4.88;;
44704;SDS011;30431;48.520;9.046;2022-11-27T13:02:35;11.05;;;6.18;;
44704;SDS011;30431;48.520;9.046;2022-11-27T13:05:25;8.20;;;4.60;;
44704;SDS011;30431;48.520;9.046;2022-11-27T13:10:42;8.68;;;4.57;;
44704;SDS011;30431;48.520;9.046;2022-11-27T13:16:03;8.20;;;5.40;;
44704;SDS011;30431;48.520;9.046;2022-11-27T13:18:44;10.88;;;6.20;;
44704;SDS011;30431;48.520;9.046;2022-11-27T13:21:22;8.23;;;6.25;;
44704;SDS011;30431;48.520;9.046;2022-11-27T13:23:52;14.40;;;9.95;;
44704;SDS011;30431;48.520;9.046;2022-11-27T13:28:53;10.35;;;7.07;;
44704;SDS011;30431;48.520;9.046;2022-11-27T13:31:27;7.18;;;5.22;;
44704;SDS011;30431;48.520;9.046;2022-11-27T13:34:07;8.15;;;5.45;;
44704;SDS011;30431;48.520;9.046;2022-11-27T13:36:44;10.40;;;7.03;;
44704;SDS011;30431;48.520;9.046;2022-11-27T13:39:41;8.27;;;5.32;;
44704;SDS011;30431;48.520;9.046;2022-11-27T13:42:16;9.85;;;5.88;;
44704;SDS011;30431;48.520;9.046;2022-11-27T13:44:51;9.05;;;5.80;;
44704;SDS011;30431;48.520;9.046;2022-11-27T13:47:37;7.75;;;5.30;;
44704;SDS011;30431;48.520;9.046;2022-11-27T13:50:12;9.68;;;5.40;;
44704;SDS011;30431;48.520;9.046;2022-11-27T13:52:54;9.73;;;5.97;;
44704;SDS011;30431;48.520;9.046;2022-11-27T13:55:37;8.82;;;5.70;;
44704;SDS011;30431;48.520;9.046;2022-11-27T13:58:06;12.82;;;8.57;;
44704;SDS011;30431;48.520;9.046;2022-11-27T14:03:03;9.45;;;6.65;;
44704;SDS011;30431;48.520;9.046;2022-11-27T14:05:39;8.60;;;5.72;;
44704;SDS011;30431;48.520;9.046;2022-11-27T14:08:29;9.60;;;6.63;;
44704;SDS011;30431;48.520;9.046;2022-11-27T14:11:08;12.27;;;6.93;;
44704;SDS011;30431;48.520;9.046;2022-11-27T14:13:43;8.75;;;6.32;;
44704;SDS011;30431;48.520;9.046;2022-11-27T14:16:27;10.30;;;6.07;;
44704;SDS011;30431;48.520;9.046;2022-11-27T14:18:58;10.57;;;6.47;;
44704;SDS011;30431;48.520;9.046;2022-11-27T14:24:55;9.73;;;6.25;;
44704;SDS011;30431;48.520;9.046;2022-11-27T14:27:20;11.18;;;7.78;;
44704;SDS011;30431;48.520;9.046;2022-11-27T14:29:49;10.98;;;8.10;;
44704;SDS011;30431;48.520;9.046;2022-11-27T14:32:18;9.82;;;7.28;;
44704;SDS011;30431;48.520;9.046;2022-11-27T14:34:48;11.02;;;7.40;;
44704;SDS011;30431;48.520;9.046;2022-11-27T14:37:23;11.38;;;7.28;;
44704;SDS011;30431;48.520;9.046;2022-11-27T14:39:52;10.07;;;7.43;;
44704;SDS011;30431;48.520;9.046;2022-11-27T14:45:02;14.30;;;9.63;;
44704;SDS011;30431;48.520;9.046;2022-11-27T14:47:30;15.45;;;10.23;;
44704;SDS011;30431;48.520;9.046;2022-11-27T14:49:58;81.32;;;59.85;;
44704;SDS011;30431;48.520;9.046;2022-11-27T14:52:26;24.42;;;16.33;;
44704;SDS011;30431;48.520;9.046;2022-11-27T14:54:54;17.08;;;12.48;;
44704;SDS011;30431;48.520;9.046;2022-11-27T14:57:27;13.48;;;10.48;;
44704;SDS011;30431;48.520;9.046;2022-11-27T15:02:49;17.80;;;12.20;;
44704;SDS011;30431;48.520;9.046;2022-11-27T15:05:22;14.23;;;11.07;;
44704;SDS011;30431;48.520;9.046;2022-11-27T15:07:55;13.13;;;9.18;;
44704;SDS011;30431;48.520;9.046;2022-11-27T15:10:26;13.02;;;9.95;;
44704;SDS011;30431;48.520;9.046;2022-11-27T15:12:54;13.48;;;10.00;;
44704;SDS011;30431;48.520;9.046;2022-11-27T15:15:23;23.35;;;13.30;;
44704;SDS011;30431;48.520;9.046;2022-11-27T15:17:56;18.40;;;12.20;;
44704;SDS011;30431;48.520;9.046;2022-11-27T15:20:27;20.42;;;11.52;;
44704;SDS011;30431;48.520;9.046;2022-11-27T15:23:15;15.10;;;9.98;;
44704;SDS011;30431;48.520;9.046;2022-11-27T15:26:11;12.70;;;9.55;;
44704;SDS011;30431;48.520;9.046;2022-11-27T15:28:51;19.58;;;10.13;;
44704;SDS011;30431;48.520;9.046;2022-11-27T15:36:41;17.23;;;11.85;;
44704;SDS011;30431;48.520;9.046;2022-11-27T15:39:15;17.35;;;10.30;;
44704;SDS011;30431;48.520;9.046;2022-11-27T15:41:50;15.95;;;10.95;;
44704;SDS011;30431;48.520;9.046;2022-11-27T15:44:25;16.85;;;11.35;;
44704;SDS011;30431;48.520;9.046;2022-11-27T15:46:54;19.30;;;11.18;;
44704;SDS011;30431;48.520;9.046;2022-11-27T15:49:23;17.77;;;12.35;;
44704;SDS011;30431;48.520;9.046;2022-11-27T15:51:53;18.38;;;11.60;;
44704;SDS011;30431;48.520;9.046;2022-11-27T15:54:24;17.23;;;10.93;;
44704;SDS011;30431;48.520;9.046;2022-11-27T15:56:51;21.70;;;11.13;;
44704;SDS011;30431;48.520;9.046;2022-11-27T15:59:23;15.82;;;10.30;;
44704;SDS011;30431;48.520;9.046;2022-11-27T16:01:50;22.83;;;14.25;;
44704;SDS011;30431;48.520;9.046;2022-11-27T16:04:17;19.65;;;12.25;;
44704;SDS011;30431;48.520;9.046;2022-11-27T16:06:44;20.33;;;13.00;;
44704;SDS011;30431;48.520;9.046;2022-11-27T16:09:13;19.00;;;9.55;;
44704;SDS011;30431;48.520;9.046;2022-11-27T16:11:41;15.60;;;9.52;;
44704;SDS011;30431;48.520;9.046;2022-11-27T16:14:08;16.95;;;10.27;;
44704;SDS011;30431;48.520;9.046;2022-11-27T16:16:35;20.05;;;10.48;;
44704;SDS011;30431;48.520;9.046;2022-11-27T16:19:08;20.38;;;10.60;;
44704;SDS011;30431;48.520;9.046;2022-11-27T16:21:37;17.25;;;10.77;;
44704;SDS011;30431;48.520;9.046;2022-11-27T16:24:05;16.02;;;9.90;;
44704;SDS011;30431;48.520;9.046;2022-11-27T16:26:35;14.38;;;9.60;;
44704;SDS011;30431;48.520;9.046;2022-11-27T16:29:04;26.52;;;18.02;;
44704;SDS011;30431;48.520;9.046;2022-11-27T16:31:31;15.70;;;10.98;;
44704;SDS011;30431;48.520;9.046;2022-11-27T16:34:01;16.83;;;11.45;;
44704;SDS011;30431;48.520;9.046;2022-11-27T16:36:30;12.82;;;9.48;;
44704;SDS011;30431;48.520;9.046;2022-11-27T16:38:57;12.80;;;9.80;;
44704;SDS011;30431;48.520;9.046;2022-11-27T16:41:27;14.98;;;9.60;;
44704;SDS011;30431;48.520;9.046;2022-11-27T16:43:55;15.90;;;9.48;;
44704;SDS011;30431;48.520;9.046;2022-11-27T16:46:24;12.98;;;9.48;;
44704;SDS011;30431;48.520;9.046;2022-11-27T16:48:56;14.15;;;9.98;;
44704;SDS011;30431;48.520;9.046;2022-11-27T16:51:28;12.00;;;8.57;;
44704;SDS011;30431;48.520;9.046;2022-11-27T16:53:57;11.32;;;8.02;;
44704;SDS011;30431;48.520;9.046;2022-11-27T16:56:28;12.77;;;8.10;;
44704;SDS011;30431;48.520;9.046;2022-11-27T16:59:02;8.85;;;6.95;;
44704;SDS011;30431;48.520;9.046;2022-11-27T17:01:34;10.77;;;7.03;;
44704;SDS011;30431;48.520;9.046;2022-11-27T17:04:06;8.95;;;6.88;;
44704;SDS011;30431;48.520;9.046;2022-11-27T17:06:36;10.57;;;6.88;;
44704;SDS011;30431;48.520;9.046;2022-11-27T17:09:05;10.40;;;7.18;;
44704;SDS011;30431;48.520;9.046;2022-11-27T17:11:33;12.38;;;7.10;;
44704;SDS011;30431;48.520;9.046;2022-11-27T17:14:03;10.80;;;7.07;;
44704;SDS011;30431;48.520;9.046;2022-11-27T17:16:32;12.35;;;6.57;;